createdAt,value
2018-02-03T00:00:04.286Z,99.90
2018-02-03T00:02:32.311Z,99.90
2018-02-03T00:07:30.031Z,99.90
2018-02-03T00:09:59.780Z,99.90
2018-02-03T00:12:28.407Z,99.90
2018-02-03T00:14:56.683Z,99.90
2018-02-03T00:17:24.917Z,99.90
2018-02-03T00:19:54.271Z,99.90
2018-02-03T00:22:24.002Z,99.90
2018-02-03T00:24:52.620Z,99.90
2018-02-03T00:27:21.253Z,99.90
2018-02-03T00:29:51.051Z,99.90
2018-02-03T00:32:19.267Z,99.90
2018-02-03T00:34:47.510Z,99.90
2018-02-03T00:39:46.021Z,99.90
2018-02-03T00:42:14.266Z,99.90
2018-02-03T00:44:42.527Z,99.90
2018-02-03T00:47:11.531Z,99.90
2018-02-03T00:49:39.761Z,99.90
2018-02-03T00:52:08.036Z,99.90
2018-02-03T00:54:36.260Z,99.90
2018-02-03T00:57:04.497Z,99.90
2018-02-03T00:59:32.764Z,99.90
2018-02-03T01:02:01.008Z,99.90
2018-02-03T01:04:30.429Z,99.90
2018-02-03T01:06:58.700Z,99.90
2018-02-03T01:11:56.791Z,99.90
2018-02-03T01:14:25.816Z,99.90
2018-02-03T01:16:54.036Z,99.90
2018-02-03T01:21:51.770Z,99.90
2018-02-03T01:24:19.987Z,99.90
2018-02-03T01:26:48.222Z,99.90
2018-02-03T01:29:16.491Z,99.90
2018-02-03T01:31:45.492Z,99.90
2018-02-03T01:34:13.760Z,99.90
2018-02-03T01:39:11.930Z,99.90
2018-02-03T01:41:41.180Z,99.90
2018-02-03T01:44:10.235Z,99.90
2018-02-03T01:46:38.464Z,99.90
2018-02-03T01:49:06.692Z,99.90
2018-02-03T01:51:35.344Z,99.90
2018-02-03T01:54:03.583Z,99.90
2018-02-03T01:56:33.326Z,99.90
2018-02-03T01:59:01.587Z,99.90
2018-02-03T02:01:29.834Z,99.90
2018-02-03T02:03:58.068Z,99.90
2018-02-03T02:06:27.122Z,99.90
2018-02-03T02:08:56.104Z,99.90
2018-02-03T02:11:25.096Z,99.90
2018-02-03T02:13:53.347Z,99.90
2018-02-03T02:16:21.567Z,99.90
2018-02-03T02:18:49.791Z,99.90
2018-02-03T02:21:18.064Z,99.90
2018-02-03T02:23:46.293Z,99.90
2018-02-03T02:26:14.525Z,99.90
2018-02-03T02:28:43.939Z,99.90
2018-02-03T02:31:12.573Z,99.90
2018-02-03T02:36:11.469Z,99.90
2018-02-03T02:38:41.229Z,99.90
2018-02-03T02:41:09.476Z,99.90
2018-02-03T02:43:37.738Z,99.90
2018-02-03T02:48:35.834Z,99.90
2018-02-03T02:51:04.089Z,99.90
2018-02-03T02:53:32.312Z,99.90
2018-02-03T02:56:01.326Z,99.90
2018-02-03T03:00:59.825Z,99.90
2018-02-03T03:03:28.045Z,99.90
2018-02-03T03:05:56.303Z,99.90
2018-02-03T03:08:24.562Z,99.90
2018-02-03T03:10:52.784Z,99.90
2018-02-03T03:15:50.512Z,99.90
2018-02-03T03:18:19.549Z,99.90
2018-02-03T03:20:48.909Z,99.90
2018-02-03T03:23:17.142Z,99.90
2018-02-03T03:25:45.375Z,99.90
2018-02-03T03:28:13.671Z,99.90
2018-02-03T03:33:12.154Z,99.90
2018-02-03T03:35:41.182Z,99.90
2018-02-03T03:38:09.409Z,99.90
2018-02-03T03:40:37.627Z,99.90
2018-02-03T03:43:07.387Z,99.90
2018-02-03T03:45:35.613Z,99.90
2018-02-03T03:48:03.850Z,99.90
2018-02-03T03:50:32.126Z,99.90
2018-02-03T03:53:00.345Z,99.90
2018-02-03T03:55:28.568Z,99.90
2018-02-03T04:02:57.274Z,99.90
2018-02-03T04:05:26.288Z,99.90
2018-02-03T04:07:55.275Z,99.90
2018-02-03T04:10:23.520Z,99.90
2018-02-03T04:12:51.780Z,99.90
2018-02-03T04:15:20.775Z,99.90
2018-02-03T04:17:48.983Z,99.90
2018-02-03T04:20:17.250Z,99.90
2018-02-03T04:22:45.483Z,99.90
2018-02-03T04:25:13.722Z,99.90
2018-02-03T04:27:43.524Z,99.90
2018-02-03T04:30:11.751Z,99.90
2018-02-03T04:32:40.800Z,99.90
2018-02-03T04:35:09.852Z,99.90
2018-02-03T04:37:38.080Z,99.90
2018-02-03T04:40:06.299Z,99.90
2018-02-03T04:45:04.767Z,99.90
2018-02-03T04:47:32.987Z,99.90
2018-02-03T04:50:01.267Z,99.90
2018-02-03T04:52:29.501Z,99.90
2018-02-03T04:54:57.744Z,99.90
2018-02-03T04:57:26.759Z,99.90
2018-02-03T04:59:54.984Z,99.90
2018-02-03T05:02:23.226Z,99.90
2018-02-03T05:04:51.484Z,99.90
2018-02-03T05:07:19.712Z,99.90
2018-02-03T05:09:47.946Z,99.90
2018-02-03T05:12:16.263Z,99.90
2018-02-03T05:14:44.493Z,99.90
2018-02-03T05:17:13.857Z,99.90
2018-02-03T05:19:42.135Z,99.90
2018-02-03T05:22:10.368Z,99.90
2018-02-03T05:24:38.583Z,99.90
2018-02-03T05:27:06.844Z,99.90
2018-02-03T05:29:35.060Z,99.90
2018-02-03T05:32:03.278Z,99.90
2018-02-03T05:34:31.548Z,99.90
2018-02-03T05:37:00.539Z,99.90
2018-02-03T05:41:58.699Z,99.90
2018-02-03T05:44:26.924Z,99.90
2018-02-03T05:46:55.158Z,99.90
2018-02-03T05:49:23.439Z,99.90
2018-02-03T05:51:51.659Z,99.90
2018-02-03T05:54:20.275Z,99.90
2018-02-03T05:56:48.537Z,99.90
2018-02-03T05:59:17.528Z,99.90
2018-02-03T06:01:46.155Z,99.90
2018-02-03T06:04:14.426Z,99.90
2018-02-03T06:09:12.912Z,99.90
2018-02-03T06:11:41.195Z,99.90
2018-02-03T06:14:10.191Z,99.90
2018-02-03T06:16:39.179Z,99.90
2018-02-03T06:19:07.461Z,99.90
2018-02-03T06:21:36.457Z,99.90
2018-02-03T06:24:04.684Z,99.90
2018-02-03T06:26:32.949Z,99.90
2018-02-03T06:29:01.197Z,99.90
2018-02-03T06:31:29.441Z,99.90
2018-02-03T06:33:59.230Z,99.90
2018-02-03T06:36:27.460Z,99.90
2018-02-03T06:38:55.684Z,99.90
2018-02-03T06:41:23.969Z,99.90
2018-02-03T06:46:22.777Z,99.90
2018-02-03T06:48:52.555Z,99.90
2018-02-03T06:51:20.771Z,99.90
2018-02-03T06:56:19.283Z,99.90
2018-02-03T07:01:17.355Z,99.90
2018-02-03T07:03:46.383Z,99.90
2018-02-03T07:08:44.860Z,99.90
2018-02-03T07:11:13.132Z,99.90
2018-02-03T07:13:42.137Z,99.90
2018-02-03T07:16:11.148Z,99.90
2018-02-03T07:18:39.412Z,99.90
2018-02-03T07:21:07.644Z,99.90
2018-02-03T07:23:35.868Z,99.90
2018-02-03T07:28:34.014Z,99.90
2018-02-03T07:33:32.522Z,99.90
2018-02-03T07:41:00.113Z,99.90
2018-02-03T07:43:29.483Z,99.90
2018-02-03T07:45:58.496Z,99.90
2018-02-03T07:48:26.770Z,99.90
2018-02-03T07:50:56.495Z,99.90
2018-02-03T07:53:24.719Z,99.90
2018-02-03T07:55:52.979Z,99.90
2018-02-03T07:58:21.211Z,99.90
2018-02-03T08:00:50.218Z,99.90
2018-02-03T08:03:19.262Z,99.90
2018-02-03T08:05:48.262Z,99.90
2018-02-03T08:08:17.631Z,99.90
2018-02-03T08:10:45.938Z,99.90
2018-02-03T08:18:14.235Z,99.90
2018-02-03T08:20:42.868Z,99.90
2018-02-03T08:25:40.615Z,99.90
2018-02-03T08:28:10.359Z,99.90
2018-02-03T08:33:11.460Z,99.90
2018-02-03T08:35:40.525Z,99.90
2018-02-03T08:38:08.776Z,99.90
2018-02-03T08:40:37.009Z,99.90
2018-02-03T08:43:05.263Z,99.90
2018-02-03T08:45:33.519Z,99.90
2018-02-03T08:48:01.743Z,99.90
2018-02-03T08:53:00.260Z,99.90
2018-02-03T08:55:28.523Z,99.90
2018-02-03T09:02:57.755Z,99.90
2018-02-03T09:05:27.174Z,99.90
2018-02-03T09:07:56.163Z,99.90
2018-02-03T09:10:24.400Z,99.90
2018-02-03T09:12:54.163Z,99.90
2018-02-03T09:15:22.407Z,99.90
2018-02-03T09:17:51.042Z,99.90
2018-02-03T09:20:20.444Z,99.90
2018-02-03T09:22:48.696Z,99.90
2018-02-03T09:25:16.933Z,99.90
2018-02-03T09:27:45.220Z,99.90
2018-02-03T09:32:43.708Z,99.90
2018-02-03T09:35:12.039Z,99.90
2018-02-03T09:37:41.457Z,99.90
2018-02-03T09:40:10.442Z,99.90
2018-02-03T09:42:38.706Z,99.90
2018-02-03T09:45:07.704Z,99.90
2018-02-03T09:57:34.266Z,73.90
2018-02-03T10:00:02.510Z,69.80
2018-02-03T10:05:00.638Z,60.90
2018-02-03T10:07:29.640Z,60.70
2018-02-03T10:09:57.874Z,56.80
2018-02-03T10:12:27.958Z,56.40
2018-02-03T10:14:57.708Z,56.30
2018-02-03T10:17:27.079Z,57.50
2018-02-03T10:22:25.290Z,67.30
2018-02-03T10:24:53.463Z,68.60
2018-02-03T10:27:21.728Z,71.60
2018-02-03T10:29:51.463Z,74.40
2018-02-03T10:32:19.696Z,76.10
2018-02-03T10:34:47.968Z,76.80
2018-02-03T10:37:16.211Z,81.50
2018-02-03T10:39:44.455Z,87.30
2018-02-03T10:42:12.740Z,93.30
2018-02-03T10:44:41.002Z,97.30
2018-02-03T10:47:10.745Z,99.90
2018-02-03T10:49:39.012Z,99.90
2018-02-03T10:52:08.023Z,99.90
2018-02-03T10:54:37.400Z,99.90
2018-02-03T10:57:05.684Z,99.90
2018-02-03T10:59:33.916Z,99.90
2018-02-03T11:02:02.151Z,99.90
2018-02-03T11:04:30.436Z,99.90
2018-02-03T11:06:59.449Z,99.90
2018-02-03T11:09:27.718Z,99.90
2018-02-03T11:11:55.953Z,99.90
2018-02-03T11:14:24.192Z,99.90
2018-02-03T11:16:53.964Z,99.90
2018-02-03T11:19:22.196Z,99.90
2018-02-03T11:21:50.423Z,99.90
2018-02-03T11:24:18.691Z,99.90
2018-02-03T11:26:46.938Z,99.90
2018-02-03T11:29:16.323Z,99.90
2018-02-03T11:31:45.749Z,99.90
2018-02-03T11:34:15.156Z,99.90
2018-02-03T11:36:43.388Z,99.90
2018-02-03T11:41:41.596Z,99.90
2018-02-03T11:44:09.822Z,99.90
2018-02-03T11:46:38.088Z,99.90
2018-02-03T11:51:36.554Z,99.90
2018-02-03T11:56:39.591Z,99.90
2018-02-03T11:59:07.851Z,99.90
2018-02-03T12:04:05.958Z,99.90
2018-02-03T12:06:34.220Z,99.90
2018-02-03T12:09:03.215Z,99.90
2018-02-03T12:14:00.978Z,99.90
2018-02-03T12:16:30.719Z,99.90
2018-02-03T12:18:59.360Z,99.90
2018-02-03T12:21:27.642Z,99.90
2018-02-03T12:23:55.882Z,99.90
2018-02-03T12:26:24.899Z,99.90
2018-02-03T12:28:53.167Z,99.90
2018-02-03T12:31:21.411Z,99.90
2018-02-03T12:33:49.644Z,99.90
2018-02-03T12:36:18.728Z,99.90
2018-02-03T12:38:48.102Z,99.90
2018-02-03T12:41:17.488Z,99.90
2018-02-03T12:43:45.751Z,99.90
2018-02-03T12:46:14.007Z,99.90
2018-02-03T12:48:42.266Z,99.90
2018-02-03T12:51:10.631Z,99.90
2018-02-03T12:53:39.264Z,99.90
2018-02-03T12:58:37.411Z,99.90
2018-02-03T13:01:07.153Z,99.90
2018-02-03T13:03:35.383Z,99.90
2018-02-03T13:06:03.647Z,99.90
2018-02-03T13:11:02.116Z,99.90
2018-02-03T13:16:01.007Z,99.90
2018-02-03T13:18:29.240Z,99.90
2018-02-03T13:20:58.286Z,99.90
2018-02-03T13:23:27.648Z,99.90
2018-02-03T13:25:55.888Z,99.90
2018-02-03T13:28:24.147Z,99.90
2018-02-03T13:30:52.379Z,99.90
2018-02-03T13:33:20.622Z,99.90
2018-02-03T13:38:18.404Z,99.90
2018-02-03T13:43:17.288Z,99.90
2018-02-03T13:45:46.295Z,99.90
2018-02-03T13:48:14.537Z,99.90
2018-02-03T13:50:42.825Z,99.90
2018-02-03T13:53:11.847Z,99.90
2018-02-03T13:55:40.861Z,99.90
2018-02-03T14:03:09.194Z,99.90
2018-02-03T14:05:37.451Z,99.90
2018-02-03T14:08:06.080Z,99.90
2018-02-03T14:10:34.308Z,99.90
2018-02-03T14:13:02.618Z,99.90
2018-02-03T14:15:30.865Z,99.90
2018-02-03T14:18:00.247Z,99.90
2018-02-03T14:20:28.521Z,99.90
2018-02-03T14:25:26.979Z,99.90
2018-02-03T14:27:55.240Z,99.90
2018-02-03T14:30:24.603Z,99.90
2018-02-03T14:32:53.604Z,99.90
2018-02-03T14:35:22.641Z,99.90
2018-02-03T14:37:50.871Z,99.90
2018-02-03T14:40:19.113Z,99.90
2018-02-03T14:42:48.890Z,99.90
2018-02-03T14:45:17.129Z,99.90
2018-02-03T14:47:45.379Z,99.90
2018-02-03T14:50:13.660Z,99.90
2018-02-03T14:52:41.922Z,99.90
2018-02-03T14:55:11.685Z,99.90
2018-02-03T14:57:41.256Z,99.90
2018-02-03T15:00:10.256Z,99.90
2018-02-03T15:02:38.485Z,99.90
2018-02-03T15:05:07.154Z,99.90
2018-02-03T15:07:36.880Z,99.90
2018-02-03T15:10:06.247Z,99.90
2018-02-03T15:12:34.527Z,99.90
2018-02-03T15:15:02.780Z,99.90
2018-02-03T15:17:31.008Z,99.90
2018-02-03T15:20:00.061Z,99.90
2018-02-03T15:22:28.686Z,99.90
2018-02-03T15:24:56.930Z,99.90
2018-02-03T15:27:25.960Z,99.90
2018-02-03T15:29:54.956Z,99.90
2018-02-03T15:32:23.188Z,99.90
2018-02-03T15:34:52.234Z,99.90
2018-02-03T15:37:21.604Z,99.90
2018-02-03T15:39:49.831Z,99.90
2018-02-03T15:42:18.864Z,99.90
2018-02-03T15:47:16.641Z,99.90
2018-02-03T15:49:44.924Z,99.90
2018-02-03T15:52:13.195Z,99.90
2018-02-03T15:54:42.192Z,99.90
2018-02-03T15:57:11.612Z,99.90
2018-02-03T15:59:40.627Z,99.90
2018-02-03T16:02:08.852Z,99.90
2018-02-03T16:04:38.843Z,99.90
2018-02-03T16:07:07.079Z,99.90
2018-02-03T16:12:05.199Z,99.90
2018-02-03T16:14:34.198Z,99.90
2018-02-03T16:17:02.428Z,99.90
2018-02-03T16:19:30.712Z,99.90
2018-02-03T16:21:59.721Z,99.90
2018-02-03T16:24:28.356Z,99.90
2018-02-03T16:26:56.630Z,99.90
2018-02-03T16:29:24.863Z,99.90
2018-02-03T16:31:53.090Z,99.90
2018-02-03T16:34:22.130Z,99.90
2018-02-03T16:36:50.356Z,99.90
2018-02-03T16:39:18.591Z,99.90
2018-02-03T16:41:46.857Z,99.90
2018-02-03T16:44:15.119Z,99.90
2018-02-03T16:49:13.030Z,99.90
2018-02-03T16:51:41.658Z,99.90
2018-02-03T16:54:09.924Z,99.90
2018-02-03T16:56:41.976Z,99.90
2018-02-03T16:59:10.235Z,99.90
2018-02-03T17:01:40.109Z,99.90
2018-02-03T17:04:08.342Z,99.90
2018-02-03T17:06:36.571Z,99.90
2018-02-03T17:09:04.847Z,99.90
2018-02-03T17:11:33.083Z,99.90
2018-02-03T17:14:01.708Z,99.90
2018-02-03T17:16:29.988Z,99.90
2018-02-03T17:23:58.345Z,99.90
2018-02-03T17:26:26.576Z,99.90
2018-02-03T17:31:24.712Z,99.90
2018-02-03T17:33:53.345Z,99.90
2018-02-03T17:36:27.363Z,99.90
2018-02-03T17:39:12.926Z,99.90
2018-02-03T17:41:41.192Z,99.90
2018-02-03T17:44:09.435Z,99.90
2018-02-03T17:46:43.269Z,99.90
2018-02-03T17:49:12.300Z,99.90
2018-02-03T17:51:42.542Z,99.90
2018-02-03T17:54:10.841Z,99.90
2018-02-03T17:56:45.646Z,99.90
2018-02-03T17:59:15.068Z,99.90
2018-02-03T18:01:44.067Z,99.90
2018-02-03T18:04:12.308Z,99.90
2018-02-03T18:06:46.159Z,99.90
2018-02-03T18:09:14.392Z,99.90
2018-02-03T18:14:13.328Z,99.90
2018-02-03T18:16:41.564Z,99.90
2018-02-03T18:19:09.796Z,99.90
2018-02-03T18:21:38.059Z,99.90
2018-02-03T18:24:07.792Z,99.90
2018-02-03T18:26:36.024Z,99.90
2018-02-03T18:29:05.833Z,99.90
2018-02-03T18:31:34.096Z,99.90
2018-02-03T18:34:02.342Z,99.90
2018-02-03T18:36:30.579Z,99.90
2018-02-03T18:38:59.083Z,99.90
2018-02-03T18:41:27.723Z,99.90
2018-02-03T18:43:55.956Z,99.90
2018-02-03T18:46:24.231Z,99.90
2018-02-03T18:48:52.469Z,99.90
2018-02-03T18:51:20.696Z,99.90
2018-02-03T18:53:48.959Z,99.90
2018-02-03T18:56:18.328Z,99.90
2018-02-03T19:01:18.198Z,99.90
2018-02-03T19:03:46.828Z,99.90
2018-02-03T19:11:17.748Z,99.90
2018-02-03T19:16:16.932Z,99.90
2018-02-03T19:18:45.564Z,99.90
2018-02-03T19:23:43.715Z,99.90
2018-02-03T19:26:11.968Z,99.90
2018-02-03T19:31:10.111Z,99.90
2018-02-03T19:38:37.291Z,99.90
2018-02-03T19:41:05.525Z,99.90
2018-02-03T19:43:33.775Z,99.90
2018-02-03T19:46:02.895Z,99.90
2018-02-03T19:48:31.179Z,99.90
2018-02-03T20:00:57.412Z,99.90
2018-02-03T20:03:26.408Z,99.90
2018-02-03T20:05:54.644Z,99.90
2018-02-03T20:08:23.671Z,99.90
2018-02-03T20:10:51.909Z,99.90
2018-02-03T20:13:20.131Z,99.90
2018-02-03T20:15:48.410Z,99.90
2018-02-03T20:18:16.652Z,99.90
2018-02-03T20:20:46.450Z,99.90
2018-02-03T20:23:14.768Z,99.90
2018-02-03T20:25:43.062Z,99.90
2018-02-03T20:31:11.108Z,99.90
2018-02-03T20:33:39.316Z,99.90
2018-02-03T20:36:07.548Z,99.90
2018-02-03T20:41:06.117Z,99.90
2018-02-03T20:46:06.538Z,99.90
2018-02-03T20:48:35.566Z,99.90
2018-02-03T20:51:03.866Z,99.90
2018-02-03T20:53:32.098Z,99.90
2018-02-03T20:56:01.891Z,99.90
2018-02-03T20:58:30.143Z,99.90
2018-02-03T21:00:59.211Z,99.90
2018-02-03T21:03:28.235Z,99.90
2018-02-03T21:05:56.500Z,99.90
2018-02-03T21:08:25.500Z,99.90
2018-02-03T21:10:54.871Z,99.90
2018-02-03T21:13:24.178Z,99.90
2018-02-03T21:15:53.218Z,99.90
2018-02-03T21:23:21.188Z,99.90
2018-02-03T21:25:49.421Z,99.90
2018-02-03T21:30:47.576Z,99.90
2018-02-03T21:33:15.831Z,99.90
2018-02-03T21:35:44.118Z,99.90
2018-02-03T21:38:13.882Z,99.90
2018-02-03T21:40:42.136Z,99.90
2018-02-03T21:45:40.660Z,99.90
2018-02-03T21:48:08.888Z,99.90
2018-02-03T21:50:38.289Z,99.90
2018-02-03T21:53:06.515Z,99.90
2018-02-03T21:55:35.518Z,99.90
2018-02-03T22:00:33.256Z,99.90
2018-02-03T22:03:01.528Z,99.90
2018-02-03T22:05:29.797Z,99.90
2018-02-03T22:07:58.088Z,99.90
2018-02-03T22:10:27.514Z,99.90
2018-02-03T22:12:55.776Z,99.90
2018-02-03T22:15:24.018Z,99.90
2018-02-03T22:20:21.831Z,99.90
2018-02-03T22:22:50.048Z,99.90
2018-02-03T22:27:48.974Z,99.90
2018-02-03T22:30:17.267Z,99.90
2018-02-03T22:32:46.266Z,99.90
2018-02-03T22:35:14.541Z,99.90
2018-02-03T22:37:42.782Z,99.90
2018-02-03T22:40:11.020Z,99.90
2018-02-03T22:45:09.560Z,99.90
2018-02-03T22:47:37.791Z,99.90
2018-02-03T22:50:06.076Z,99.90
2018-02-03T22:52:35.073Z,99.90
2018-02-03T22:55:03.300Z,99.90
2018-02-03T23:00:01.428Z,99.90
2018-02-03T23:02:36.071Z,99.90
2018-02-03T23:07:34.298Z,99.90
2018-02-03T23:10:02.567Z,99.90
2018-02-03T23:12:30.823Z,99.90
2018-02-03T23:15:00.203Z,99.90
2018-02-03T23:17:28.472Z,99.90
2018-02-03T23:19:56.704Z,99.90
2018-02-03T23:22:24.935Z,99.90
2018-02-03T23:24:53.225Z,99.90
2018-02-03T23:27:21.456Z,99.90
2018-02-03T23:32:19.184Z,99.90
2018-02-03T23:34:48.179Z,99.90
2018-02-03T23:42:15.374Z,99.90
2018-02-03T23:44:44.017Z,99.90
2018-02-03T23:47:12.282Z,99.90
2018-02-03T23:49:40.519Z,99.90
2018-02-03T23:52:08.748Z,99.90
2018-02-03T23:54:38.551Z,99.90
2018-02-03T23:57:06.780Z,99.90
2018-02-03T23:59:35.012Z,99.90
